Aviation Digital Data Service (ADDS)

Output produced by METARs form (1329 UTC 31 July 2014)
found at http://www.aviationweather.gov/adds/metars/
 
KUNV 311323Z 24006KT 5SM BR SCT010 16/15 A3010
KUNV 311253Z 22003KT 5SM BR BKN005 15/14 A3010
KUNV 311242Z 23003KT 3SM BR BKN003 15/14 A3010
KUNV 311153Z 21005KT 2 1/2SM BR OVC003 14/14 A3010
KUNV 311121Z 21004KT 1SM BR OVC001 14/14 A3010
KUNV 311107Z 21005KT 1/2SM FG OVC001 13/13 A3009
KUNV 311053Z 23003KT 1/4SM FG OVC001 13/13 A3009
KUNV 310953Z 00000KT 1/4SM FG OVC001 13/13 A3007
KUNV 310935Z AUTO 00000KT 1/4SM FG OVC001 13/13 A3007 RMK AO2 T01270126
KUNV 310915Z AUTO 00000KT 1/4SM FG OVC001 13/13 A3007 RMK AO2 T01270126
KUNV 310855Z AUTO 00000KT 1/4SM FG OVC001 13/12 A3007 RMK AO2 LTG DSNT N T01250123
KUNV 310835Z AUTO 00000KT 1/2SM FG OVC001 12/12 A3006 RMK AO2 T01190117
KUNV 310815Z AUTO 00000KT 1/4SM FG BKN001 BKN047 OVC110 12/12 A3006 RMK AO2 T01230122
KUNV 310755Z AUTO 00000KT 3SM BR CLR 12/12 A3006 RMK AO2 T01230121
KUNV 310735Z AUTO 00000KT 1SM BR VV007 13/13 A3006 RMK AO2 VIS 1/2V2 1/2 T01260125
KUNV 310715Z AUTO 00000KT 2SM BR CLR 12/12 A3006 RMK AO2 VIS 3/4V5 T01230121
KUNV 310655Z AUTO 00000KT 3SM BR CLR 13/13 A3006 RMK AO2 T01300129
KUNV 310635Z AUTO 00000KT 1 1/4SM BR SCT001 SCT065 13/13 A3006 RMK AO2 T01300128
KUNV 310615Z AUTO 00000KT 5SM BR CLR 14/13 A3006 RMK AO2 T01350131
KUNV 310555Z AUTO 00000KT 4SM BR SCT001 SCT110 14/14 A3007 RMK AO2 T01360135 10149 20135
KUNV 310535Z AUTO 00000KT 2 1/2SM BR SCT001 BKN110 14/14 A3007 RMK AO2 T01360135
KUNV 310515Z AUTO 00000KT 3SM BR BKN110 14/14 A3007 RMK AO2 T01360135
KUNV 310455Z AUTO 00000KT 7SM SCT110 14/13 A3007 RMK AO2 T01380132
KUNV 310435Z AUTO 28003KT 5SM BR CLR 14/14 A3007 RMK AO2 T01400136
KUNV 310415Z AUTO 00000KT 3SM BR SCT090 14/14 A3007 RMK AO2 T01370135
KUNV 310355Z AUTO 26003KT 7SM SCT065 BKN090 14/14 A3008 RMK AO2 T01420138 402270102
KUNV 310335Z AUTO 27003KT 5SM BR SCT055 BKN065 14/14 A3008 RMK AO2 T01410139
KUNV 310315Z AUTO 26004KT 10SM SCT034 SCT060 BKN075 15/14 A3008 RMK AO2 T01450140
KUNV 310255Z AUTO 00000KT 5SM BR SCT075 OVC100 14/14 A3007 RMK AO2 T01410140
KUNV 310235Z AUTO 00000KT 5SM BR OVC100 14/14 A3008 RMK AO2 T01420140
KUNV 310215Z AUTO 00000KT 10SM SCT075 OVC100 15/14 A3007 RMK AO2 LTG DSNT W T01460137
KUNV 310155Z AUTO 00000KT 10SM SCT075 OVC100 15/14 A3008 RMK AO2 T01460140
KUNV 310053Z 00000KT 9SM BKN090 14/14 A3007
KUNV 302353Z COR 00000KT 9SM FEW010 SCT060 BKN100 15/14 A3008
KUNV 302308Z 11008KT 5SM VCTS SCT023 BKN039 14/14 A3007
KUNV 302253Z 11008KT 3SM +TSRA SCT023 BKN039 14/13 A3006 RMK VIS SW-NW 8 TS OVHD MOVE OCNL LTG ALL QDS
KUNV 302220Z 34016G32KT 2SM +TSRA SCT023 BKN039 17/13 A3004 RMK TS OVHD MOVE OCNL LTG ALL QDS
KUNV 302212Z 33018G30KT 10SM TSRA SCT044 BKN080 20/14 A3005 RMK TSB 2212
KUNV 302153Z 21007KT 10SM SCT070 BKN120 21/13 A3002
KUNV 302053Z 23009KT 10SM SCT075 BKN120 21/13 A3002
KUNV 301850Z 23010KT 10SM SCT055 BKN090 22/13 A3003
KUNV 301753Z 22010KT 10SM SCT037 BKN070 21/13 A3003
KUNV 301653Z 22010KT 10SM BKN030 BKN070 20/13 A3007
KUNV 301553Z 23005KT 10SM SCT037 BKN080 20/12 A3007
KUNV 301453Z 22009KT 10SM SCT080 19/12 A3008
KUNV 301353Z 21007KT 10SM SKC 17/12 A3008
KUNV 301253Z 20005KT 10SM SKC 15/12 A3007
KUNV 301153Z 00000KT 10SM SKC 12/11 A3006
KUNV 301053Z 00000KT 10SM SKC 10/10 A3005
KUNV 300953Z 00000KT 10SM SKC 10/10 A3004
KUNV 300935Z AUTO 00000KT 10SM CLR 11/10 A3004 RMK AO2 T01070101
KUNV 300915Z AUTO 00000KT 10SM CLR 11/10 A3004 RMK AO2 T01100103
KUNV 300855Z AUTO 00000KT 10SM CLR 11/10 A3003 RMK AO2 T01090104
KUNV 300835Z AUTO 00000KT 10SM CLR 11/10 A3003 RMK AO2 T01100104
KUNV 300815Z AUTO 00000KT 10SM CLR 11/10 A3003 RMK AO2 T01070101
KUNV 300755Z AUTO 00000KT 10SM CLR 11/10 A3003 RMK AO2 T01100100
KUNV 300735Z AUTO 00000KT 10SM CLR 12/10 A3003 RMK AO2 T01160104
KUNV 300715Z AUTO 00000KT 10SM CLR 12/10 A3003 RMK AO2 T01150103
KUNV 300655Z AUTO 22003KT 10SM CLR 12/10 A3003 RMK AO2 T01160104
KUNV 300635Z AUTO 23004KT 10SM CLR 12/10 A3003 RMK AO2 T01160103
KUNV 300615Z AUTO 24006KT 10SM CLR 12/11 A3003 RMK AO2 T01240106
KUNV 300555Z AUTO 23005KT 10SM SCT050 12/11 A3003 RMK AO2 T01210106 10165 20121
KUNV 300535Z AUTO 24004KT 10SM BKN050 13/11 A3003 RMK AO2 T01340112
KUNV 300515Z AUTO 22003KT 10SM BKN055 13/11 A3003 RMK AO2 T01340111
KUNV 300455Z AUTO 22004KT 10SM CLR 13/11 A3003 RMK AO2 T01270111
KUNV 300435Z AUTO 21003KT 10SM CLR 13/12 A3004 RMK AO2 LTG DSNT W T01310117
KUNV 300415Z AUTO 19003KT 10SM CLR 13/12 A3004 RMK AO2 T01290116
KUNV 300355Z AUTO 00000KT 10SM SCT055 14/12 A3003 RMK AO2 T01360115 401940126
KUNV 300335Z AUTO 00000KT 10SM SCT060 SCT080 14/11 A3003 RMK AO2 T01360112
KUNV 300315Z AUTO 00000KT 10SM SCT060 BKN080 14/12 A3003 RMK AO2 T01390115
KUNV 300255Z AUTO 23004KT 10SM OVC080 14/12 A3003 RMK AO2 T01420116
KUNV 300235Z AUTO 24004KT 10SM SCT060 SCT070 OVC080 15/12 A3003 RMK AO2 T01460119
KUNV 300215Z AUTO 00000KT 10SM SCT060 SCT070 OVC080 15/13 A3003 RMK AO2 T01460125
KUNV 300155Z AUTO 00000KT 10SM OVC080 17/11 A3003 RMK AO2 T01650114